Time;durP1;ratioP1;P1;durP2;ratioP2;P2;SDS_P1;SDS_P2;PMS_P1;PMS_P2;Temp;Humidity;BMP_temperature;BMP_pressure;BME280_temperature;BME280_humidity;BME280_pressure;Samples;Min_cycle;Max_cycle;Signal;HPM_P1;HPM_P2
2022/05/04 00:02:11;;;;;;;8.23;2.67;;;6.50;99.90;;;;;;5123734;27;20704;-59
2022/05/04 00:04:39;;;;;;;7.90;2.40;;;6.50;99.90;;;;;;5124078;27;20226;-61
2022/05/04 00:07:08;;;;;;;6.83;2.50;;;6.50;99.90;;;;;;5123585;27;20244;-59
2022/05/04 00:09:36;;;;;;;7.83;2.70;;;6.40;99.90;;;;;;5121880;27;20233;-61
2022/05/04 00:12:05;;;;;;;9.80;2.43;;;6.40;99.90;;;;;;5123391;27;20237;-60
2022/05/04 00:14:33;;;;;;;7.30;2.40;;;6.40;99.90;;;;;;5123622;27;20696;-61
2022/05/04 00:17:01;;;;;;;5.33;2.60;;;6.40;99.90;;;;;;5123938;27;20739;-60
2022/05/04 00:19:33;;;;;;;10.10;2.93;;;6.40;99.90;;;;;;5123889;27;20261;-60
2022/05/04 00:22:02;;;;;;;4.03;2.37;;;6.30;99.90;;;;;;5123979;27;20727;-58
2022/05/04 00:24:30;;;;;;;4.63;2.57;;;6.30;99.90;;;;;;5123013;27;20602;-60
2022/05/04 00:26:58;;;;;;;8.83;3.03;;;6.40;99.90;;;;;;5123929;27;20275;-59
2022/05/04 00:29:26;;;;;;;7.30;3.13;;;6.30;99.90;;;;;;5104561;27;20316;-59
2022/05/04 00:31:54;;;;;;;10.23;2.77;;;6.40;99.90;;;;;;5123893;27;20237;-59
2022/05/04 00:34:22;;;;;;;5.60;2.60;;;6.30;99.90;;;;;;5122817;27;20237;-58
2022/05/04 00:36:51;;;;;;;8.20;2.60;;;6.30;99.90;;;;;;5124229;27;20260;-58
2022/05/04 00:39:19;;;;;;;6.47;2.90;;;6.20;99.90;;;;;;5122968;27;20237;-60
2022/05/04 00:41:48;;;;;;;5.73;2.50;;;6.20;99.90;;;;;;5123527;27;20317;-59
2022/05/04 00:44:16;;;;;;;8.50;2.77;;;6.10;99.90;;;;;;5122679;27;20241;-60
2022/05/04 00:46:44;;;;;;;7.67;3.07;;;6.10;99.90;;;;;;5123364;27;20240;-59
2022/05/04 00:49:12;;;;;;;9.20;2.80;;;6.10;99.90;;;;;;5122661;27;20241;-60
2022/05/04 00:51:41;;;;;;;6.17;3.20;;;6.20;99.90;;;;;;5123227;27;20316;-59
2022/05/04 00:54:10;;;;;;;7.97;3.40;;;6.10;99.90;;;;;;5122660;27;21135;-60
2022/05/04 00:56:38;;;;;;;9.20;3.00;;;6.10;99.90;;;;;;5123414;27;20577;-59
2022/05/04 00:59:07;;;;;;;9.27;3.17;;;6.00;99.90;;;;;;5122879;27;21080;-59
2022/05/04 01:01:35;;;;;;;6.30;2.90;;;6.00;99.90;;;;;;5122960;27;20233;-59
2022/05/04 01:04:03;;;;;;;8.00;2.93;;;6.10;99.90;;;;;;5122466;27;20248;-59
2022/05/04 01:06:32;;;;;;;6.23;2.80;;;6.10;99.90;;;;;;5122959;27;20233;-60
2022/05/04 01:09:00;;;;;;;6.60;2.83;;;6.20;99.90;;;;;;5122413;27;20248;-60
2022/05/04 01:11:29;;;;;;;10.90;2.80;;;6.10;99.90;;;;;;5122698;27;20597;-59
2022/05/04 01:14:02;;;;;;;7.43;3.00;;;6.00;99.90;;;;;;5122463;27;20270;-61
2022/05/04 01:16:31;;;;;;;6.33;2.73;;;6.00;99.90;;;;;;5121876;27;20249;-60
2022/05/04 01:18:59;;;;;;;7.77;3.10;;;5.90;99.90;;;;;;5122888;27;20236;-59
2022/05/04 01:21:28;;;;;;;5.67;2.93;;;5.90;99.90;;;;;;5122560;27;20240;-60
2022/05/04 01:23:58;;;;;;;6.07;2.83;;;6.10;99.90;;;;;;5121973;27;20233;-58
2022/05/04 01:26:26;;;;;;;7.23;3.63;;;6.10;99.90;;;;;;5122550;27;20251;-60
2022/05/04 01:28:55;;;;;;;6.33;3.00;;;6.10;99.90;;;;;;5122614;27;20240;-59
2022/05/04 01:31:23;;;;;;;9.27;3.10;;;6.00;99.90;;;;;;5122121;27;20238;-59
2022/05/04 01:33:51;;;;;;;8.77;3.00;;;6.00;99.90;;;;;;5121983;27;20236;-59
2022/05/04 01:36:19;;;;;;;8.63;3.00;;;6.00;99.90;;;;;;5122140;27;20236;-60
2022/05/04 01:38:47;;;;;;;8.27;3.43;;;6.00;99.90;;;;;;5121533;27;20240;-59
2022/05/04 01:44:02;;;;;;;6.23;3.17;;;6.10;99.90;;;;;;5121642;27;20236;-60
2022/05/04 01:46:30;;;;;;;7.00;3.00;;;6.20;99.90;;;;;;5121950;27;20711;-60
2022/05/04 01:48:59;;;;;;;10.03;3.60;;;6.20;99.90;;;;;;5122466;27;20229;-60
2022/05/04 01:51:27;;;;;;;8.93;3.17;;;6.20;99.90;;;;;;5121867;27;20236;-59
2022/05/04 01:53:55;;;;;;;6.70;3.27;;;6.20;99.90;;;;;;5120789;27;20289;-60
2022/05/04 01:56:26;;;;;;;8.27;3.03;;;6.20;99.90;;;;;;5122085;27;20264;-59
2022/05/04 01:58:55;;;;;;;6.33;3.13;;;6.10;99.90;;;;;;5121947;27;20258;-59
2022/05/04 02:01:23;;;;;;;13.47;3.07;;;6.10;99.90;;;;;;5121900;27;20228;-59
2022/05/04 02:03:51;;;;;;;9.90;3.17;;;6.10;99.90;;;;;;5121715;27;20715;-59
2022/05/04 02:06:19;;;;;;;9.23;3.10;;;6.10;99.90;;;;;;5120844;27;20243;-61
2022/05/04 02:08:48;;;;;;;7.43;3.00;;;6.20;99.90;;;;;;5121604;27;20328;-59
2022/05/04 02:11:17;;;;;;;7.37;3.77;;;6.20;99.90;;;;;;5120769;27;20237;-60
2022/05/04 02:13:47;;;;;;;13.30;3.30;;;6.20;99.90;;;;;;5121182;27;20237;-59
2022/05/04 02:16:16;;;;;;;9.60;3.13;;;6.20;99.90;;;;;;5121548;27;20243;-59
2022/05/04 02:18:44;;;;;;;6.03;3.20;;;6.20;99.90;;;;;;5121787;27;20241;-60
2022/05/04 02:21:12;;;;;;;7.97;3.73;;;6.20;99.90;;;;;;5121033;27;20236;-59
2022/05/04 02:23:40;;;;;;;8.90;3.60;;;6.20;99.90;;;;;;5120954;27;20233;-59
2022/05/04 02:26:08;;;;;;;8.97;3.50;;;6.10;99.90;;;;;;5121618;27;20249;-59
2022/05/04 02:28:36;;;;;;;9.97;3.53;;;6.10;99.90;;;;;;5121920;27;20241;-58
2022/05/04 02:31:06;;;;;;;8.63;3.10;;;6.10;99.90;;;;;;5121600;27;20573;-60
2022/05/04 02:33:35;;;;;;;11.40;3.53;;;6.00;99.90;;;;;;5120718;27;20731;-59
2022/05/04 02:38:49;;;;;;;8.63;3.70;;;6.20;99.90;;;;;;5121185;27;20239;-61
2022/05/04 02:41:18;;;;;;;6.93;3.13;;;6.10;99.90;;;;;;5121217;28;20240;-59
2022/05/04 02:43:46;;;;;;;10.27;3.70;;;6.20;99.90;;;;;;5120252;27;20664;-61
2022/05/04 02:46:16;;;;;;;8.50;4.03;;;6.10;99.90;;;;;;5121381;27;20224;-59
2022/05/04 02:48:46;;;;;;;10.03;4.40;;;6.20;99.90;;;;;;5121684;27;21480;-60
2022/05/04 02:51:15;;;;;;;7.20;4.33;;;6.20;99.90;;;;;;5120143;27;20236;-59
2022/05/04 02:53:43;;;;;;;11.27;3.67;;;6.20;99.90;;;;;;5121011;27;20314;-60
2022/05/04 02:56:13;;;;;;;7.80;3.70;;;6.20;99.90;;;;;;5121463;27;20239;-60
2022/05/04 02:58:41;;;;;;;11.07;4.13;;;6.30;99.90;;;;;;5121352;27;20289;-60
2022/05/04 03:03:54;;;;;;;8.90;3.93;;;6.30;99.90;;;;;;5119969;27;20997;-59
2022/05/04 03:06:23;;;;;;;9.33;3.83;;;6.20;99.90;;;;;;5102434;28;20263;-59
2022/05/04 03:08:51;;;;;;;11.00;4.00;;;6.30;99.90;;;;;;5099606;28;20704;-59
2022/05/04 03:14:07;;;;;;;8.40;4.00;;;6.40;99.90;;;;;;5120726;27;20236;-59
2022/05/04 03:16:35;;;;;;;5.33;3.53;;;6.30;99.90;;;;;;5120861;27;20319;-60
2022/05/04 03:19:05;;;;;;;8.63;4.03;;;6.50;99.90;;;;;;5121220;27;20245;-59
2022/05/04 03:21:34;;;;;;;7.67;3.90;;;6.50;99.90;;;;;;5120575;27;20239;-60
2022/05/04 03:24:03;;;;;;;5.90;3.40;;;6.40;99.90;;;;;;5120600;27;20237;-60
2022/05/04 03:26:31;;;;;;;6.53;4.07;;;6.40;99.90;;;;;;5121173;27;20708;-61
2022/05/04 03:28:59;;;;;;;8.40;3.73;;;6.50;99.90;;;;;;5121149;27;20732;-59
2022/05/04 03:31:27;;;;;;;7.87;4.20;;;6.40;99.90;;;;;;5122362;27;20237;-59
2022/05/04 03:33:56;;;;;;;6.27;3.90;;;6.40;99.90;;;;;;5124705;27;20248;-60
2022/05/04 03:36:25;;;;;;;8.97;3.70;;;6.50;99.90;;;;;;5124178;27;20225;-61
2022/05/04 03:38:53;;;;;;;8.83;4.20;;;6.50;99.90;;;;;;5125333;27;20769;-59
2022/05/04 03:41:21;;;;;;;11.00;4.33;;;6.40;99.90;;;;;;5124503;27;20236;-59
2022/05/04 03:43:50;;;;;;;12.47;5.77;;;6.40;99.90;;;;;;5123901;27;20241;-60
2022/05/04 03:46:19;;;;;;;12.17;6.87;;;6.40;99.90;;;;;;5124062;27;20989;-59
2022/05/04 03:48:49;;;;;;;11.10;6.07;;;6.70;99.90;;;;;;5124271;27;20236;-60
2022/05/04 03:51:19;;;;;;;13.10;6.20;;;6.70;99.90;;;;;;5124017;27;20239;-60
2022/05/04 03:53:49;;;;;;;14.97;7.93;;;6.70;99.90;;;;;;5123350;27;20240;-61
2022/05/04 03:56:18;;;;;;;17.17;8.63;;;6.70;99.90;;;;;;5123824;27;20268;-60
2022/05/04 03:58:47;;;;;;;12.73;7.83;;;6.50;99.90;;;;;;5124000;27;20783;-61
2022/05/04 04:01:15;;;;;;;9.40;5.63;;;6.40;99.90;;;;;;5122405;27;20289;-59
2022/05/04 04:03:43;;;;;;;13.90;6.00;;;6.60;99.90;;;;;;5122155;27;20241;-60
2022/05/04 04:06:12;;;;;;;11.50;5.33;;;6.60;99.90;;;;;;5123990;27;20241;-59
2022/05/04 04:08:49;;;;;;;12.07;5.17;;;6.60;99.90;;;;;;5123892;27;20315;-59
2022/05/04 04:11:18;;;;;;;9.20;4.87;;;6.70;99.90;;;;;;5123910;27;20244;-59
2022/05/04 04:13:46;;;;;;;6.50;4.40;;;6.80;99.90;;;;;;5124369;27;20290;-60
2022/05/04 04:16:15;;;;;;;10.13;5.20;;;6.80;99.90;;;;;;5124298;27;21435;-60
2022/05/04 04:18:43;;;;;;;14.10;4.97;;;6.90;99.90;;;;;;5124321;27;20727;-60
2022/05/04 04:23:59;;;;;;;6.60;4.00;;;6.80;99.90;;;;;;5123125;27;20233;-60
2022/05/04 04:26:27;;;;;;;7.13;3.97;;;6.80;99.90;;;;;;5123247;27;20229;-59
2022/05/04 04:28:55;;;;;;;12.40;4.80;;;6.80;99.90;;;;;;5123869;27;20754;-59
2022/05/04 04:31:23;;;;;;;8.03;4.73;;;6.80;99.90;;;;;;5105012;27;20241;-59
2022/05/04 04:33:52;;;;;;;8.97;4.20;;;7.00;99.90;;;;;;5123595;27;20233;-59
2022/05/04 04:36:20;;;;;;;9.67;4.43;;;7.10;99.90;;;;;;5124835;27;20319;-59
2022/05/04 04:38:48;;;;;;;9.97;4.63;;;7.10;99.90;;;;;;5124965;27;20233;-60
2022/05/04 04:41:17;;;;;;;9.73;4.63;;;7.10;99.90;;;;;;5123757;27;20275;-60
2022/05/04 04:43:45;;;;;;;6.20;4.27;;;7.10;99.90;;;;;;5123590;27;20243;-60
2022/05/04 04:46:13;;;;;;;8.90;4.00;;;7.10;99.90;;;;;;5124646;27;20232;-59
2022/05/04 04:48:42;;;;;;;9.33;4.10;;;7.10;99.90;;;;;;5124112;27;20360;-59
2022/05/04 04:51:10;;;;;;;12.90;4.90;;;7.00;99.90;;;;;;5124560;27;20241;-59
2022/05/04 04:53:38;;;;;;;8.93;4.17;;;7.10;99.90;;;;;;5124129;27;20236;-59
2022/05/04 04:56:07;;;;;;;7.93;4.23;;;7.10;99.90;;;;;;5123894;27;20245;-61
2022/05/04 04:58:36;;;;;;;11.13;4.57;;;7.20;99.90;;;;;;5124609;27;20235;-58
2022/05/04 05:01:04;;;;;;;11.27;4.47;;;7.20;99.90;;;;;;5124350;27;20256;-61
2022/05/04 05:03:32;;;;;;;9.43;4.30;;;7.20;99.90;;;;;;5122968;27;20601;-58
2022/05/04 05:06:00;;;;;;;9.30;4.43;;;7.40;99.90;;;;;;5124113;27;20253;-59
2022/05/04 05:08:28;;;;;;;16.43;5.50;;;7.40;99.90;;;;;;5123827;27;20256;-60
2022/05/04 05:10:56;;;;;;;7.20;4.40;;;7.60;99.90;;;;;;5123860;27;20264;-59
2022/05/04 05:13:25;;;;;;;8.90;4.33;;;7.60;99.90;;;;;;5122694;27;20236;-59
2022/05/04 05:16:08;;;;;;;11.30;4.83;;;7.70;99.90;;;;;;5122995;27;20275;-59
2022/05/04 05:18:37;;;;;;;5.53;4.10;;;7.60;99.90;;;;;;5121697;27;20713;-61
2022/05/04 05:21:06;;;;;;;9.70;4.70;;;7.60;99.90;;;;;;5123130;27;20809;-60
2022/05/04 05:23:34;;;;;;;9.77;4.30;;;7.60;99.90;;;;;;5121107;27;20731;-59
2022/05/04 05:26:02;;;;;;;14.60;5.00;;;7.60;99.90;;;;;;5121400;27;20237;-59
2022/05/04 05:28:30;;;;;;;8.00;4.87;;;7.80;99.90;;;;;;5121951;27;20324;-59
2022/05/04 05:31:00;;;;;;;9.67;4.70;;;8.00;99.90;;;;;;5122149;27;20706;-59
2022/05/04 05:33:28;;;;;;;11.20;4.53;;;8.10;99.90;;;;;;5121661;27;20285;-60
2022/05/04 05:35:56;;;;;;;13.60;4.90;;;8.20;99.90;;;;;;5122129;27;20230;-61
2022/05/04 05:38:27;;;;;;;12.37;4.80;;;8.40;99.90;;;;;;5121636;27;20272;-60
2022/05/04 05:40:55;;;;;;;9.17;4.63;;;8.50;99.90;;;;;;5122383;27;20701;-59
2022/05/04 05:43:26;;;;;;;10.00;4.37;;;8.70;99.90;;;;;;5121254;27;20237;-58
2022/05/04 05:45:54;;;;;;;7.33;4.27;;;9.00;99.90;;;;;;5122036;27;20562;-59
2022/05/04 05:48:24;;;;;;;11.33;4.03;;;9.20;99.90;;;;;;5122156;27;20240;-59
2022/05/04 05:50:52;;;;;;;9.13;4.00;;;9.40;99.90;;;;;;5122091;27;20233;-60
2022/05/04 05:53:21;;;;;;;9.67;3.97;;;9.50;99.90;;;;;;5120978;27;20239;-60
2022/05/04 05:55:50;;;;;;;11.10;4.20;;;9.70;99.90;;;;;;5120010;27;20261;-61
2022/05/04 05:58:18;;;;;;;6.93;3.93;;;10.00;99.90;;;;;;5120825;27;20237;-61
2022/05/04 06:00:46;;;;;;;7.93;3.73;;;10.20;99.90;;;;;;5121516;27;20256;-59
2022/05/04 06:03:14;;;;;;;12.97;4.13;;;10.40;99.90;;;;;;5121702;27;20237;-60
2022/05/04 06:05:44;;;;;;;5.37;3.73;;;10.50;99.90;;;;;;5121714;27;20273;-59
2022/05/04 06:08:12;;;;;;;8.07;3.90;;;10.70;99.90;;;;;;5122022;27;20266;-59
2022/05/04 06:10:40;;;;;;;10.43;3.93;;;10.90;99.90;;;;;;5121476;27;20272;-58
2022/05/04 06:13:09;;;;;;;6.43;3.23;;;11.00;99.90;;;;;;5121382;27;20250;-61
2022/05/04 06:15:37;;;;;;;7.80;3.17;;;11.10;99.90;;;;;;5122825;27;20229;-60
2022/05/04 06:18:05;;;;;;;8.10;3.10;;;11.20;99.90;;;;;;5121149;27;20239;-59
2022/05/04 06:20:33;;;;;;;6.13;2.67;;;11.30;99.90;;;;;;5121867;27;20230;-59
2022/05/04 06:23:03;;;;;;;5.63;3.00;;;11.50;99.90;;;;;;5121078;27;20242;-60
2022/05/04 06:25:31;;;;;;;6.50;2.40;;;11.70;99.90;;;;;;5121523;27;20321;-61
2022/05/04 06:27:59;;;;;;;6.77;2.30;;;11.60;99.90;;;;;;5121075;27;20242;-59
2022/05/04 06:35:59;;;;;;;4.57;1.70;;;11.70;99.90;;;;;;5114718;27;20634;-59
2022/05/04 06:38:28;;;;;;;5.93;1.70;;;11.90;99.90;;;;;;5115807;27;20239;-60
2022/05/04 06:40:57;;;;;;;6.10;2.00;;;11.90;99.90;;;;;;5115921;28;20245;-61
2022/05/04 06:43:25;;;;;;;5.73;1.97;;;11.90;99.90;;;;;;5118552;28;20261;-58
2022/05/04 06:45:53;;;;;;;4.53;1.50;;;12.30;99.90;;;;;;5100012;28;20326;-59
2022/05/04 06:48:22;;;;;;;4.40;1.50;;;12.40;99.90;;;;;;5100309;28;20328;-59
2022/05/04 06:50:50;;;;;;;6.40;1.67;;;12.50;99.90;;;;;;5100302;28;20241;-60
2022/05/04 06:53:18;;;;;;;5.97;1.80;;;12.80;99.90;;;;;;5097212;28;20264;-59
2022/05/04 06:55:47;;;;;;;4.97;1.73;;;13.10;99.90;;;;;;5099737;28;20578;-62
2022/05/04 06:58:15;;;;;;;7.30;2.30;;;13.30;99.90;;;;;;5099603;28;20241;-60
2022/05/04 07:00:44;;;;;;;6.57;1.80;;;13.50;99.90;;;;;;5100842;28;20302;-59
2022/05/04 07:03:12;;;;;;;3.30;1.50;;;13.60;99.90;;;;;;5099660;28;20322;-59
2022/05/04 07:05:40;;;;;;;5.77;1.87;;;13.60;99.90;;;;;;5108456;27;20293;-59
2022/05/04 07:08:08;;;;;;;8.27;2.10;;;13.60;99.90;;;;;;5105040;28;20250;-59
2022/05/04 07:10:37;;;;;;;7.13;1.87;;;13.50;99.90;;;;;;5104078;27;20755;-61
2022/05/04 07:13:07;;;;;;;5.17;1.80;;;13.90;99.90;;;;;;5104780;27;20251;-59
2022/05/04 07:15:35;;;;;;;6.20;1.63;;;14.30;99.90;;;;;;5105274;27;20233;-61
2022/05/04 07:18:04;;;;;;;5.07;1.80;;;14.70;99.90;;;;;;5125359;27;20245;-59
2022/05/04 07:20:32;;;;;;;4.37;1.70;;;15.00;99.90;;;;;;5125108;27;20360;-59
2022/05/04 07:23:00;;;;;;;5.50;1.77;;;15.40;99.90;;;;;;5124473;27;20259;-58
2022/05/04 07:25:28;;;;;;;7.17;1.87;;;15.60;99.90;;;;;;5124950;27;20241;-62
2022/05/04 07:27:56;;;;;;;4.43;1.70;;;14.90;99.90;;;;;;5125031;27;20241;-60
2022/05/04 07:30:26;;;;;;;5.77;2.00;;;14.20;99.90;;;;;;5124559;27;20348;-59
2022/05/04 07:32:54;;;;;;;9.83;1.90;;;13.70;99.90;;;;;;5125085;27;20331;-61
2022/05/04 07:35:23;;;;;;;5.60;1.87;;;13.30;99.90;;;;;;5125508;27;20817;-59
2022/05/04 07:37:51;;;;;;;4.90;1.80;;;13.10;99.90;;;;;;5125497;27;20225;-60
2022/05/04 07:43:04;;;;;;;4.97;1.80;;;13.40;99.90;;;;;;5125024;27;20981;-61
2022/05/04 07:45:34;;;;;;;6.60;2.17;;;13.90;99.90;;;;;;5125588;27;20233;-60
2022/05/04 07:48:02;;;;;;;4.43;1.93;;;14.20;99.90;;;;;;5125852;27;20298;-62
2022/05/04 07:50:30;;;;;;;5.00;1.80;;;14.50;99.90;;;;;;5124638;27;20236;-59
2022/05/04 07:52:59;;;;;;;6.60;1.83;;;14.60;99.90;;;;;;5124372;27;20252;-58
2022/05/04 07:55:27;;;;;;;5.93;1.80;;;14.60;99.90;;;;;;5123800;27;20235;-59
2022/05/04 07:57:55;;;;;;;6.17;1.60;;;14.60;99.90;;;;;;5124516;27;20654;-61
2022/05/04 08:05:58;;;;;;;6.57;2.30;;;14.00;99.90;;;;;;5124438;27;20245;-61
2022/05/04 08:08:27;;;;;;;4.27;1.87;;;13.60;99.90;;;;;;5123830;27;20704;-59
2022/05/04 08:11:02;;;;;;;6.40;2.10;;;13.40;99.90;;;;;;5123826;27;20241;-59
2022/05/04 08:13:30;;;;;;;6.77;1.77;;;13.40;99.90;;;;;;5123240;27;20326;-59
2022/05/04 08:15:58;;;;;;;7.87;2.13;;;13.70;99.90;;;;;;5124279;27;20229;-59
2022/05/04 08:18:27;;;;;;;3.30;1.97;;;13.90;99.90;;;;;;5123014;27;20301;-61
2022/05/04 08:20:55;;;;;;;6.47;2.40;;;14.00;99.90;;;;;;5125290;27;20232;-58
2022/05/04 08:23:24;;;;;;;5.70;2.17;;;13.80;99.90;;;;;;5124505;27;20233;-59
2022/05/04 08:25:53;;;;;;;7.20;2.00;;;13.70;99.90;;;;;;5124444;27;20233;-59
2022/05/04 08:28:21;;;;;;;4.90;2.30;;;13.90;99.90;;;;;;5122596;27;20242;-60
2022/05/04 08:30:49;;;;;;;5.87;2.00;;;13.90;99.90;;;;;;5124008;27;20237;-58
2022/05/04 08:33:18;;;;;;;6.33;2.00;;;13.90;99.90;;;;;;5122595;27;20241;-61
2022/05/04 08:35:48;;;;;;;4.77;1.83;;;14.10;99.90;;;;;;5122864;27;20233;-61
2022/05/04 08:38:16;;;;;;;5.17;2.07;;;14.30;99.90;;;;;;5123587;27;20241;-59
2022/05/04 08:40:45;;;;;;;5.47;2.03;;;14.60;99.90;;;;;;5124030;27;20241;-58
2022/05/04 08:43:14;;;;;;;5.53;1.90;;;14.80;99.90;;;;;;5123951;27;20600;-58
2022/05/04 08:45:43;;;;;;;3.77;1.73;;;14.90;99.90;;;;;;5124690;27;20347;-59
2022/05/04 08:48:11;;;;;;;7.57;2.13;;;15.30;99.90;;;;;;5124285;27;20225;-58
2022/05/04 08:50:40;;;;;;;6.60;2.00;;;15.50;99.90;;;;;;5124537;27;20229;-61
2022/05/04 08:53:10;;;;;;;6.73;2.30;;;15.50;99.90;;;;;;5123401;27;20245;-59
2022/05/04 08:55:39;;;;;;;6.33;2.13;;;15.50;99.90;;;;;;5122748;27;20241;-61
2022/05/04 08:58:07;;;;;;;5.70;2.03;;;15.30;99.90;;;;;;5122751;27;20233;-61
2022/05/04 09:00:35;;;;;;;7.93;2.10;;;15.00;99.90;;;;;;5122838;27;20689;-60
2022/05/04 09:03:06;;;;;;;4.70;2.07;;;15.10;99.90;;;;;;5122622;27;20237;-61
2022/05/04 09:05:40;;;;;;;5.70;1.83;;;15.20;99.90;;;;;;5122734;27;20570;-60
2022/05/04 09:08:10;;;;;;;5.60;2.07;;;15.40;99.90;;;;;;5122320;27;20588;-60
2022/05/04 09:10:45;;;;;;;5.53;1.67;;;15.60;99.90;;;;;;5123374;27;20232;-62
2022/05/04 09:13:13;;;;;;;4.53;2.07;;;15.70;99.90;;;;;;5123317;27;20321;-59
2022/05/04 09:15:42;;;;;;;6.43;2.07;;;16.00;99.90;;;;;;5123885;27;20229;-59
2022/05/04 09:18:16;;;;;;;6.77;2.20;;;15.60;99.90;;;;;;5124407;27;20899;-58
2022/05/04 09:20:55;;;;;;;7.33;2.37;;;15.40;99.90;;;;;;5124256;27;21569;-59
2022/05/04 09:23:28;;;;;;;7.17;2.07;;;14.70;99.90;;;;;;5122686;27;20738;-59
2022/05/04 09:25:58;;;;;;;5.20;2.00;;;14.30;99.90;;;;;;5123764;27;20705;-59
2022/05/04 09:28:28;;;;;;;4.77;2.10;;;14.40;99.90;;;;;;5122650;27;20249;-59
2022/05/04 09:30:58;;;;;;;5.60;2.40;;;14.30;99.90;;;;;;5122213;27;20248;-60
2022/05/04 09:33:27;;;;;;;7.17;2.27;;;14.60;99.90;;;;;;5121207;27;20244;-58
2022/05/04 09:35:56;;;;;;;9.50;2.50;;;14.80;99.90;;;;;;5122079;27;20237;-59
2022/05/04 09:46:51;;;;;;;6.47;2.30;;;17.20;99.90;;;;;;5121481;27;20724;-59
2022/05/04 09:49:21;;;;;;;7.00;2.40;;;18.20;99.90;;;;;;5121767;27;20238;-61
2022/05/04 09:51:52;;;;;;;6.30;2.20;;;18.40;99.90;;;;;;5121546;27;20316;-60
2022/05/04 09:54:23;;;;;;;7.23;2.10;;;18.90;99.90;;;;;;5121336;27;20357;-61
2022/05/04 09:56:53;;;;;;;6.90;2.43;;;18.90;99.90;;;;;;5122614;27;20245;-60
2022/05/04 09:59:23;;;;;;;7.10;2.30;;;18.90;99.90;;;;;;5123051;27;20315;-59
2022/05/04 10:01:52;;;;;;;5.53;2.47;;;19.00;99.90;;;;;;5123372;27;20258;-62
2022/05/04 10:04:21;;;;;;;5.57;2.17;;;19.20;99.90;;;;;;5122294;27;20238;-60
2022/05/04 10:06:50;;;;;;;4.53;2.13;;;19.50;99.90;;;;;;5121706;27;20939;-61
2022/05/04 10:09:19;;;;;;;6.37;2.40;;;19.70;99.90;;;;;;5123093;27;20347;-60
2022/05/04 10:11:53;;;;;;;5.53;2.03;;;19.70;99.90;;;;;;5122879;27;20758;-59
2022/05/04 10:14:21;;;;;;;7.30;2.27;;;19.80;99.90;;;;;;5122193;27;21837;-60
2022/05/04 10:16:54;;;;;;;6.30;2.10;;;20.10;99.90;;;;;;5122864;27;20240;-59
2022/05/04 10:19:26;;;;;;;5.37;2.10;;;20.20;99.90;;;;;;5122828;27;20248;-61
2022/05/04 10:21:57;;;;;;;7.50;2.33;;;20.20;99.90;;;;;;5122963;27;20291;-59
2022/05/04 10:24:35;;;;;;;6.60;2.00;;;19.60;99.90;;;;;;5122247;27;20244;-59
2022/05/04 10:27:17;;;;;;;5.50;1.80;;;18.90;99.90;;;;;;5122390;27;20291;-59
2022/05/04 10:32:37;;;;;;;6.20;2.07;;;17.80;99.90;;;;;;5121758;27;20288;-59
2022/05/04 10:35:21;;;;;;;4.93;1.90;;;16.90;99.90;;;;;;5123029;27;20234;-60
2022/05/04 10:38:09;;;;;;;7.23;2.30;;;16.70;99.90;;;;;;5122281;27;20329;-60
2022/05/04 10:40:40;;;;;;;9.50;2.33;;;16.30;99.90;;;;;;5102691;27;20273;-59
2022/05/04 10:43:11;;;;;;;6.03;2.37;;;16.00;99.90;;;;;;5122464;27;20237;-60
2022/05/04 10:45:41;;;;;;;6.13;2.30;;;15.90;99.90;;;;;;5122754;27;20829;-60
2022/05/04 10:48:28;;;;;;;8.03;2.83;;;16.10;99.90;;;;;;5122599;27;20384;-58
2022/05/04 10:51:04;;;;;;;6.73;2.20;;;16.30;99.90;;;;;;5121775;27;20229;-59
2022/05/04 10:53:43;;;;;;;6.27;2.40;;;15.70;99.90;;;;;;5118962;27;20236;-59
2022/05/04 10:56:15;;;;;;;4.53;2.00;;;15.90;99.90;;;;;;5119358;27;20625;-61
2022/05/04 10:58:49;;;;;;;6.57;2.60;;;16.50;99.90;;;;;;5121585;27;20233;-60
2022/05/04 11:01:20;;;;;;;3.93;2.30;;;17.50;99.90;;;;;;5120605;27;20276;-60
2022/05/04 11:04:18;;;;;;;5.00;2.33;;;18.10;99.90;;;;;;5121434;27;20248;-60
2022/05/04 11:07:03;;;;;;;4.30;2.10;;;18.50;99.90;;;;;;5118435;27;20798;-59
2022/05/04 11:09:35;;;;;;;6.17;2.03;;;18.90;99.90;;;;;;5121373;27;20247;-60
2022/05/04 11:12:05;;;;;;;5.60;2.50;;;19.30;99.90;;;;;;5120795;27;20248;-61
2022/05/04 11:14:35;;;;;;;5.17;2.10;;;19.90;99.90;;;;;;5120447;27;20979;-61
2022/05/04 11:17:10;;;;;;;5.50;2.27;;;20.00;99.20;;;;;;5121245;27;20964;-60
2022/05/04 11:19:43;;;;;;;6.63;2.50;;;20.40;99.80;;;;;;5118372;27;21138;-60
2022/05/04 11:22:13;;;;;;;4.83;2.37;;;20.60;99.00;;;;;;5120273;27;20243;-59
2022/05/04 11:25:01;;;;;;;6.40;2.17;;;20.80;98.50;;;;;;5121069;27;20240;-60
2022/05/04 11:27:29;;;;;;;6.20;2.03;;;20.50;98.10;;;;;;5120274;27;20245;-59
2022/05/04 11:29:59;;;;;;;6.90;2.20;;;19.00;98.80;;;;;;5120788;27;20239;-62
2022/05/04 11:32:29;;;;;;;4.07;2.10;;;18.10;99.90;;;;;;5120398;27;20365;-61
2022/05/04 11:34:57;;;;;;;6.07;2.30;;;17.60;99.90;;;;;;5121048;27;20250;-61
2022/05/04 11:37:25;;;;;;;6.13;2.00;;;17.70;99.90;;;;;;5120740;27;20632;-59
2022/05/04 11:39:53;;;;;;;5.97;1.97;;;18.10;99.90;;;;;;5121071;27;20240;-58
2022/05/04 11:42:23;;;;;;;6.17;2.33;;;18.60;99.90;;;;;;5120125;28;20242;-59
2022/05/04 11:44:54;;;;;;;5.83;2.33;;;18.40;99.90;;;;;;5121080;27;20565;-60
2022/05/04 11:47:24;;;;;;;6.63;2.20;;;18.00;99.90;;;;;;5120228;27;20563;-62
2022/05/04 11:49:55;;;;;;;7.30;2.20;;;18.70;99.90;;;;;;5119047;27;20236;-60
2022/05/04 11:52:23;;;;;;;5.90;2.43;;;19.30;99.90;;;;;;5119795;27;20244;-61
2022/05/04 11:54:51;;;;;;;6.87;2.60;;;18.80;99.90;;;;;;5123014;27;20247;-60
2022/05/04 11:57:20;;;;;;;7.30;2.40;;;19.00;99.90;;;;;;5123753;27;20240;-59
2022/05/04 11:59:51;;;;;;;5.10;2.37;;;18.80;99.90;;;;;;5122998;27;20795;-61
2022/05/04 12:02:20;;;;;;;7.23;2.93;;;18.20;99.90;;;;;;5123833;27;20291;-60
2022/05/04 12:04:50;;;;;;;5.37;2.57;;;17.70;99.90;;;;;;5124399;27;20719;-61
2022/05/04 12:07:19;;;;;;;6.73;2.60;;;17.50;99.90;;;;;;5123993;27;20240;-61
2022/05/04 12:09:47;;;;;;;5.27;2.30;;;17.70;99.90;;;;;;5124039;27;20965;-59
2022/05/04 12:12:16;;;;;;;4.03;2.10;;;17.60;99.90;;;;;;5124221;27;20239;-58
2022/05/04 12:14:44;;;;;;;5.10;1.87;;;17.80;99.90;;;;;;5123788;27;20236;-60
2022/05/04 12:17:13;;;;;;;6.83;2.70;;;18.10;99.90;;;;;;5123869;27;20255;-59
2022/05/04 12:19:45;;;;;;;6.03;2.17;;;18.60;99.90;;;;;;5123610;27;20659;-60
2022/05/04 12:22:15;;;;;;;6.03;2.47;;;18.50;99.90;;;;;;5123156;27;20253;-59
2022/05/04 12:24:43;;;;;;;5.80;2.40;;;18.20;99.90;;;;;;5123198;27;20235;-59
2022/05/04 12:27:12;;;;;;;5.97;2.17;;;17.70;99.90;;;;;;5123262;27;20242;-59
2022/05/04 12:35:12;;;;;;;5.70;2.30;;;18.10;99.90;;;;;;5123993;27;20234;-59
2022/05/04 12:37:41;;;;;;;6.83;2.17;;;18.30;99.90;;;;;;5123325;27;20615;-61
2022/05/04 12:40:11;;;;;;;7.23;2.13;;;18.60;99.90;;;;;;5123620;27;20569;-59
2022/05/04 12:42:39;;;;;;;7.27;2.50;;;18.80;99.90;;;;;;5122635;27;20252;-61
2022/05/04 12:45:08;;;;;;;7.47;2.63;;;18.80;99.90;;;;;;5123195;27;20239;-59
2022/05/04 12:47:36;;;;;;;7.57;2.30;;;18.20;99.90;;;;;;5123314;27;20238;-59
2022/05/04 12:50:05;;;;;;;7.60;2.37;;;17.60;99.90;;;;;;5123501;27;20240;-59
2022/05/04 12:52:37;;;;;;;10.67;2.30;;;17.30;99.90;;;;;;5122646;27;20234;-59
2022/05/04 12:55:08;;;;;;;5.93;2.30;;;16.90;99.90;;;;;;5123274;27;20233;-59
2022/05/04 12:57:37;;;;;;;5.50;2.07;;;16.60;99.90;;;;;;5123265;27;20315;-59
2022/05/04 13:00:06;;;;;;;4.03;1.80;;;16.70;99.90;;;;;;5123151;27;20241;-58
2022/05/04 13:02:34;;;;;;;7.13;2.30;;;17.10;99.90;;;;;;5122471;27;20260;-59
2022/05/04 13:05:03;;;;;;;6.53;1.97;;;17.40;99.90;;;;;;5122378;27;20241;-60
2022/05/04 13:07:31;;;;;;;5.53;2.20;;;17.70;99.90;;;;;;5122428;27;20234;-61
2022/05/04 13:10:09;;;;;;;8.87;2.47;;;17.80;99.90;;;;;;5123703;27;20237;-59
2022/05/04 13:12:37;;;;;;;7.70;2.40;;;18.00;99.90;;;;;;5121794;27;20604;-60
2022/05/04 13:15:06;;;;;;;4.53;2.20;;;17.90;99.90;;;;;;5123439;27;20249;-59
2022/05/04 13:17:34;;;;;;;4.70;2.30;;;17.50;99.90;;;;;;5122729;27;20230;-59
2022/05/04 13:20:03;;;;;;;4.47;2.27;;;17.10;99.90;;;;;;5122666;27;20237;-60
2022/05/04 13:22:32;;;;;;;5.63;2.20;;;16.90;99.90;;;;;;5122114;27;20771;-59
2022/05/04 13:25:00;;;;;;;16.90;2.60;;;16.90;99.90;;;;;;5122398;27;20589;-60
2022/05/04 13:27:30;;;;;;;5.93;2.37;;;17.40;99.90;;;;;;5121484;27;20249;-61
2022/05/04 13:29:58;;;;;;;6.37;2.23;;;17.80;99.90;;;;;;5122685;27;20273;-59
2022/05/04 13:32:26;;;;;;;5.97;2.40;;;17.80;99.90;;;;;;5122837;27;20254;-60
2022/05/04 13:35:01;;;;;;;6.80;2.30;;;17.90;99.90;;;;;;5123292;27;20258;-60
2022/05/04 13:37:29;;;;;;;6.70;2.43;;;17.70;99.90;;;;;;5122445;27;20253;-60
2022/05/04 13:39:57;;;;;;;5.63;2.17;;;17.30;99.90;;;;;;5122959;27;20237;-59
2022/05/04 13:42:25;;;;;;;3.87;2.23;;;16.80;99.90;;;;;;5122338;27;20322;-59
2022/05/04 13:44:55;;;;;;;6.00;1.93;;;16.70;99.90;;;;;;5123333;27;20260;-61
2022/05/04 13:47:23;;;;;;;10.40;2.70;;;16.40;99.90;;;;;;5122643;27;20700;-60